createdAt,value
2022-08-05T00:00:52.167Z,21.20
2022-08-05T00:03:54.370Z,21.20
2022-08-05T00:06:59.551Z,21.20
2022-08-05T00:10:02.142Z,21.20
2022-08-05T00:13:04.573Z,21.20
2022-08-05T00:16:12.135Z,21.10
2022-08-05T00:19:14.598Z,21.10
2022-08-05T00:22:17.949Z,21.00
2022-08-05T00:25:20.232Z,21.10
2022-08-05T00:28:29.592Z,21.10
2022-08-05T00:31:54.222Z,21.10
2022-08-05T00:35:06.559Z,21.10
2022-08-05T00:38:09.869Z,21.10
2022-08-05T00:41:12.339Z,21.10
2022-08-05T00:44:14.787Z,21.00
2022-08-05T00:47:16.898Z,21.10
2022-08-05T00:50:20.879Z,21.10
2022-08-05T00:54:00.085Z,21.10
2022-08-05T00:56:51.574Z,21.10
2022-08-05T00:59:54.392Z,21.10
2022-08-05T01:02:58.242Z,21.10
2022-08-05T01:06:03.841Z,21.10
2022-08-05T01:09:08.012Z,21.10
2022-08-05T01:12:18.154Z,21.10
2022-08-05T01:15:36.027Z,21.10
2022-08-05T01:18:43.406Z,21.10
2022-08-05T01:22:00.089Z,21.10
2022-08-05T01:25:23.944Z,21.10
2022-08-05T01:29:04.376Z,21.10
2022-08-05T01:32:12.428Z,21.20
2022-08-05T01:35:52.125Z,21.30
2022-08-05T01:38:50.836Z,21.20
2022-08-05T01:41:53.382Z,21.20
2022-08-05T01:44:59.179Z,21.20
2022-08-05T01:48:03.818Z,21.30
2022-08-05T01:51:15.009Z,21.20
2022-08-05T01:54:23.666Z,21.20
2022-08-05T01:58:29.870Z,21.00
2022-08-05T02:01:06.058Z,21.10
2022-08-05T02:04:12.147Z,21.10
2022-08-05T02:07:20.226Z,21.10
2022-08-05T02:10:29.011Z,21.00
2022-08-05T02:13:53.987Z,20.90
2022-08-05T02:16:59.673Z,21.00
2022-08-05T02:20:06.749Z,21.00
2022-08-05T02:23:12.143Z,21.00
2022-08-05T02:26:22.369Z,21.00
2022-08-05T02:29:58.770Z,20.90
2022-08-05T02:32:54.442Z,21.00
2022-08-05T02:36:01.249Z,21.00
2022-08-05T02:39:08.854Z,21.10
2022-08-05T02:42:11.683Z,21.10
2022-08-05T02:45:52.622Z,21.20
2022-08-05T02:48:54.171Z,21.20
2022-08-05T02:52:02.745Z,21.20
2022-08-05T02:55:10.835Z,21.20
2022-08-05T02:58:16.950Z,21.20
2022-08-05T03:01:27.156Z,21.20
2022-08-05T03:04:30.134Z,21.20
2022-08-05T03:08:00.372Z,21.20
2022-08-05T03:11:47.611Z,21.30
2022-08-05T03:14:17.445Z,21.20
2022-08-05T03:17:20.190Z,21.30
2022-08-05T03:20:26.413Z,21.30
2022-08-05T03:23:29.783Z,21.20
2022-08-05T03:26:32.810Z,21.20
2022-08-05T03:29:45.666Z,21.10
2022-08-05T03:33:00.217Z,21.20
2022-08-05T03:36:03.576Z,21.20
2022-08-05T03:39:20.058Z,21.20
2022-08-05T03:42:32.276Z,21.20
2022-08-05T03:45:57.129Z,21.30
2022-08-05T03:48:58.252Z,21.30
2022-08-05T03:52:39.071Z,21.20
2022-08-05T03:56:05.239Z,21.30
2022-08-05T03:59:07.324Z,21.20
2022-08-05T04:02:14.968Z,21.20
2022-08-05T04:05:20.288Z,21.20
2022-08-05T04:08:35.156Z,21.10
2022-08-05T04:11:50.933Z,21.10
2022-08-05T04:14:57.705Z,21.20
2022-08-05T04:18:07.185Z,21.10
2022-08-05T04:21:10.881Z,21.10
2022-08-05T04:24:19.345Z,21.10
2022-08-05T04:27:41.516Z,21.10
2022-08-05T04:30:46.197Z,21.10
2022-08-05T04:34:18.672Z,21.10
2022-08-05T04:37:14.006Z,21.10
2022-08-05T04:40:19.293Z,21.10
2022-08-05T04:43:22.240Z,21.20
2022-08-05T04:46:27.956Z,21.30
2022-08-05T04:49:38.836Z,21.30
2022-08-05T04:52:53.178Z,21.30
2022-08-05T04:56:33.627Z,21.30
2022-08-05T04:59:24.174Z,21.30
2022-08-05T05:02:42.022Z,21.30
2022-08-05T05:06:39.919Z,21.30
2022-08-05T05:09:07.684Z,21.30
2022-08-05T05:12:10.168Z,21.30
2022-08-05T05:15:13.783Z,21.30
2022-08-05T05:18:28.657Z,21.30
2022-08-05T05:21:36.067Z,21.30
2022-08-05T05:24:58.063Z,21.30
2022-08-05T05:28:02.588Z,21.30
2022-08-05T05:31:05.735Z,21.30
2022-08-05T05:34:11.443Z,21.30
2022-08-05T05:37:15.366Z,21.20
2022-08-05T05:40:20.442Z,21.10
2022-08-05T05:43:58.372Z,21.10
2022-08-05T05:46:51.181Z,21.10
2022-08-05T05:49:56.727Z,21.10
2022-08-05T05:53:03.497Z,21.20
2022-08-05T05:56:26.020Z,21.20
2022-08-05T05:59:40.278Z,21.30
2022-08-05T06:02:43.918Z,21.20
2022-08-05T06:05:46.713Z,21.20
2022-08-05T06:08:56.675Z,21.20
2022-08-05T06:12:01.782Z,21.10
2022-08-05T06:15:08.022Z,21.10
2022-08-05T06:18:10.757Z,21.20
2022-08-05T06:21:18.613Z,21.10
2022-08-05T06:24:22.535Z,21.20
2022-08-05T06:28:12.551Z,21.20
2022-08-05T06:30:52.195Z,21.20
2022-08-05T06:34:07.509Z,21.20
2022-08-05T06:37:11.283Z,21.20
2022-08-05T06:40:20.535Z,21.20
2022-08-05T06:43:57.634Z,21.20
2022-08-05T06:46:46.053Z,21.30
2022-08-05T06:50:00.632Z,21.20
2022-08-05T06:53:11.837Z,21.30
2022-08-05T06:56:27.149Z,21.40
2022-08-05T06:59:29.506Z,21.40
2022-08-05T07:02:45.650Z,21.40
2022-08-05T07:05:47.842Z,21.50
2022-08-05T07:08:54.782Z,21.60
2022-08-05T07:12:00.439Z,21.60
2022-08-05T07:15:34.634Z,21.60
2022-08-05T07:18:50.754Z,21.70
2022-08-05T07:22:00.760Z,21.50
2022-08-05T07:25:21.956Z,21.50
2022-08-05T07:28:30.842Z,21.60
2022-08-05T07:31:40.640Z,21.60
2022-08-05T07:34:57.739Z,21.60
2022-08-05T07:38:00.250Z,21.70
2022-08-05T07:41:34.958Z,21.70
2022-08-05T07:44:28.659Z,21.90
2022-08-05T07:47:42.012Z,21.90
2022-08-05T07:50:44.624Z,21.90
2022-08-05T07:53:50.514Z,22.00
2022-08-05T07:57:01.878Z,22.00
2022-08-05T08:00:16.759Z,22.10
2022-08-05T08:03:19.080Z,22.10
2022-08-05T08:06:24.011Z,22.10
2022-08-05T08:09:30.898Z,22.20
2022-08-05T08:12:49.342Z,22.40
2022-08-05T08:16:34.905Z,22.50
2022-08-05T08:20:00.476Z,22.50
2022-08-05T08:22:37.085Z,22.60
2022-08-05T08:25:59.004Z,22.70
2022-08-05T08:29:06.068Z,22.70
2022-08-05T08:32:28.110Z,22.70
2022-08-05T08:35:35.255Z,22.50
2022-08-05T08:38:44.049Z,22.70
2022-08-05T08:42:00.000Z,22.70
2022-08-05T08:45:23.433Z,22.70
2022-08-05T08:48:41.467Z,22.80
2022-08-05T08:52:04.052Z,22.90
2022-08-05T08:55:13.048Z,22.80
2022-08-05T08:58:17.313Z,22.90
2022-08-05T09:01:21.425Z,22.90
2022-08-05T09:04:30.417Z,23.00
2022-08-05T09:07:39.783Z,23.20
2022-08-05T09:10:56.361Z,23.10
2022-08-05T09:14:09.610Z,23.20
2022-08-05T09:17:40.411Z,23.40
2022-08-05T09:20:46.057Z,23.50
2022-08-05T09:24:07.873Z,23.70
2022-08-05T09:28:05.388Z,23.90
2022-08-05T09:31:22.907Z,23.90
2022-08-05T09:34:55.568Z,23.90
2022-08-05T09:38:17.389Z,23.70
2022-08-05T09:41:22.260Z,23.90
2022-08-05T09:44:56.323Z,24.00
2022-08-05T09:48:00.445Z,24.20
2022-08-05T09:51:14.934Z,24.30
2022-08-05T09:54:28.799Z,24.40
2022-08-05T09:57:39.540Z,24.30
2022-08-05T10:00:54.347Z,24.40
2022-08-05T10:04:00.529Z,24.40
2022-08-05T10:07:06.142Z,24.50
2022-08-05T10:10:53.864Z,24.60
2022-08-05T10:13:57.057Z,24.60
2022-08-05T10:17:37.814Z,24.80
2022-08-05T10:20:42.867Z,25.00
2022-08-05T10:23:59.799Z,25.30
2022-08-05T10:27:02.788Z,25.50
2022-08-05T10:32:47.910Z,25.70
2022-08-05T10:33:34.246Z,25.90
2022-08-05T10:36:39.883Z,26.00
2022-08-05T10:39:59.048Z,26.10
2022-08-05T10:43:18.335Z,26.30
2022-08-05T10:46:42.650Z,26.40
2022-08-05T10:50:32.364Z,26.40
2022-08-05T10:53:42.652Z,26.30
2022-08-05T10:56:49.487Z,26.50
2022-08-05T11:00:29.848Z,26.50
2022-08-05T11:03:33.758Z,26.60
2022-08-05T11:06:56.471Z,26.80
2022-08-05T11:10:03.942Z,27.10
2022-08-05T11:13:39.963Z,27.00
2022-08-05T11:17:57.418Z,27.20
2022-08-05T11:20:52.668Z,27.30
2022-08-05T11:24:02.974Z,27.50
2022-08-05T11:27:50.760Z,27.50
2022-08-05T11:30:59.952Z,27.70
2022-08-05T11:34:08.174Z,27.70
2022-08-05T11:38:31.029Z,27.60
2022-08-05T11:41:03.537Z,27.80
2022-08-05T11:44:53.328Z,28.00
2022-08-05T11:47:50.412Z,28.20
2022-08-05T11:50:57.306Z,28.50
2022-08-05T11:54:01.655Z,28.80
2022-08-05T11:57:08.417Z,28.90
2022-08-05T12:00:30.359Z,29.00
2022-08-05T12:03:44.179Z,29.30
2022-08-05T12:07:01.272Z,29.50
2022-08-05T12:10:09.621Z,29.70
2022-08-05T12:13:17.410Z,29.70
2022-08-05T12:16:34.875Z,30.20
2022-08-05T12:20:26.465Z,30.00
2022-08-05T12:23:14.958Z,29.70
2022-08-05T12:26:17.614Z,29.70
2022-08-05T12:29:24.723Z,29.80
2022-08-05T12:32:27.016Z,29.70
2022-08-05T12:35:39.449Z,29.60
2022-08-05T12:38:42.374Z,29.20
2022-08-05T12:41:45.911Z,29.00
2022-08-05T12:44:49.162Z,28.80
2022-08-05T12:48:01.528Z,28.50
2022-08-05T12:52:11.031Z,28.20
2022-08-05T12:54:43.801Z,28.20
2022-08-05T12:58:50.507Z,28.30
2022-08-05T13:02:00.180Z,28.30
2022-08-05T13:04:41.790Z,28.10
2022-08-05T13:08:00.587Z,28.10
2022-08-05T13:11:04.146Z,28.00
2022-08-05T13:14:36.334Z,28.10
2022-08-05T13:17:42.230Z,27.90
2022-08-05T13:20:44.796Z,27.90
2022-08-05T13:23:50.595Z,28.00
2022-08-05T13:26:54.659Z,28.10
2022-08-05T13:29:59.376Z,28.20
2022-08-05T13:34:23.604Z,28.20
2022-08-05T13:36:43.774Z,28.30
2022-08-05T13:40:16.501Z,28.20
2022-08-05T13:43:12.088Z,28.20
2022-08-05T13:46:16.227Z,28.20
2022-08-05T13:49:18.597Z,28.20
2022-08-05T13:52:30.159Z,28.30
2022-08-05T13:55:41.139Z,28.40
2022-08-05T13:58:44.874Z,28.40
2022-08-05T14:01:59.236Z,28.50
2022-08-05T14:05:12.040Z,28.60
2022-08-05T14:08:20.774Z,28.50
2022-08-05T14:11:31.251Z,28.60
2022-08-05T14:14:33.906Z,28.70
2022-08-05T14:17:36.386Z,28.70
2022-08-05T14:20:38.946Z,28.80
2022-08-05T14:23:41.117Z,28.80
2022-08-05T14:27:01.978Z,28.80
2022-08-05T14:30:06.981Z,28.80
2022-08-05T14:33:26.076Z,28.90
2022-08-05T14:36:28.469Z,29.00
2022-08-05T14:39:50.272Z,29.00
2022-08-05T14:42:56.493Z,29.00
2022-08-05T14:45:58.997Z,29.00
2022-08-05T14:49:06.346Z,29.00
2022-08-05T14:52:12.242Z,28.90
2022-08-05T14:55:24.791Z,28.90
2022-08-05T14:58:27.211Z,28.90
2022-08-05T15:01:48.509Z,28.90
2022-08-05T15:04:51.611Z,29.00
2022-08-05T15:08:08.602Z,28.90
2022-08-05T15:11:23.383Z,28.90
2022-08-05T15:14:49.987Z,28.90
2022-08-05T15:17:53.262Z,28.90
2022-08-05T15:20:55.642Z,28.90
2022-08-05T15:23:57.867Z,28.90
2022-08-05T15:27:01.014Z,28.90
2022-08-05T15:30:04.285Z,28.90
2022-08-05T15:33:07.271Z,28.90
2022-08-05T15:36:17.389Z,28.80
2022-08-05T15:41:00.647Z,28.90
2022-08-05T15:42:53.549Z,28.80
2022-08-05T15:46:01.362Z,28.70
2022-08-05T15:49:10.089Z,28.60
2022-08-05T15:52:16.706Z,28.60
2022-08-05T15:56:02.706Z,28.60
2022-08-05T15:58:54.463Z,28.50
2022-08-05T16:01:57.849Z,28.40
2022-08-05T16:05:05.254Z,28.30
2022-08-05T16:08:12.372Z,28.30
2022-08-05T16:11:21.023Z,28.30
2022-08-05T16:14:54.343Z,28.30
2022-08-05T16:17:57.832Z,28.30
2022-08-05T16:21:04.112Z,28.30
2022-08-05T16:24:12.813Z,28.30
2022-08-05T16:27:32.228Z,28.20
2022-08-05T16:30:51.030Z,28.20
2022-08-05T16:33:55.009Z,28.20
2022-08-05T16:36:57.258Z,28.20
2022-08-05T16:40:05.058Z,28.20
2022-08-05T16:43:09.541Z,28.10
2022-08-05T16:46:23.932Z,28.10
2022-08-05T16:49:27.047Z,28.00
2022-08-05T16:52:33.689Z,28.00
2022-08-05T16:55:47.087Z,27.80
2022-08-05T16:58:49.719Z,27.90
2022-08-05T17:01:55.964Z,27.80
2022-08-05T17:04:58.607Z,27.70
2022-08-05T17:08:01.060Z,27.70
2022-08-05T17:11:04.181Z,27.60
2022-08-05T17:14:13.099Z,27.50
2022-08-05T17:17:42.802Z,27.40
2022-08-05T17:20:45.335Z,27.40
2022-08-05T17:24:05.270Z,27.30
2022-08-05T17:27:10.029Z,27.30
2022-08-05T17:30:19.002Z,27.10
2022-08-05T17:33:38.835Z,27.10
2022-08-05T17:36:50.623Z,26.80
2022-08-05T17:39:56.018Z,26.80
2022-08-05T17:42:59.945Z,26.60
2022-08-05T17:46:02.452Z,26.60
2022-08-05T17:49:06.644Z,26.40
2022-08-05T17:52:09.450Z,26.30
2022-08-05T17:55:15.362Z,26.30
2022-08-05T17:58:21.623Z,26.20
2022-08-05T18:01:49.236Z,26.20
2022-08-05T18:04:53.592Z,25.90
2022-08-05T18:07:57.322Z,25.60
2022-08-05T18:10:59.820Z,25.50
2022-08-05T18:14:04.240Z,25.30
2022-08-05T18:17:07.130Z,25.20
2022-08-05T18:20:31.618Z,25.00
2022-08-05T18:23:45.728Z,24.80
2022-08-05T18:26:49.471Z,24.60
2022-08-05T18:29:54.592Z,24.40
2022-08-05T18:33:00.279Z,24.30
2022-08-05T18:36:09.188Z,24.10
2022-08-05T18:39:42.070Z,23.80
2022-08-05T18:42:49.563Z,23.80
2022-08-05T18:45:56.202Z,23.70
2022-08-05T18:49:20.681Z,23.80
2022-08-05T18:52:33.661Z,23.80
2022-08-05T18:55:38.011Z,23.80
2022-08-05T18:58:40.418Z,23.60
2022-08-05T19:01:48.175Z,23.60
2022-08-05T19:06:05.456Z,23.50
2022-08-05T19:08:30.577Z,23.30
2022-08-05T19:11:37.164Z,23.10
2022-08-05T19:15:00.916Z,23.00
2022-08-05T19:18:10.430Z,23.10
2022-08-05T19:21:16.095Z,22.90
2022-08-05T19:24:18.534Z,22.90
2022-08-05T19:27:37.423Z,22.70
2022-08-05T19:30:44.729Z,22.60
2022-08-05T19:33:56.343Z,22.40
2022-08-05T19:36:59.554Z,22.30
2022-08-05T19:40:02.480Z,22.20
2022-08-05T19:43:10.747Z,22.10
2022-08-05T19:46:34.843Z,22.00
2022-08-05T19:49:37.494Z,22.10
2022-08-05T19:52:40.866Z,22.10
2022-08-05T19:56:14.955Z,22.00
2022-08-05T19:59:51.136Z,22.00
2022-08-05T20:02:32.335Z,21.90
2022-08-05T20:05:43.376Z,21.90
2022-08-05T20:08:53.557Z,21.80
2022-08-05T20:11:56.396Z,21.70
2022-08-05T20:15:00.912Z,21.80
2022-08-05T20:18:10.893Z,21.70
2022-08-05T20:21:28.016Z,21.70
2022-08-05T20:24:34.498Z,21.70
2022-08-05T20:27:41.908Z,21.60
2022-08-05T20:30:44.478Z,21.40
2022-08-05T20:33:47.502Z,21.40
2022-08-05T20:36:50.009Z,21.30
2022-08-05T20:39:52.300Z,21.30
2022-08-05T20:43:00.663Z,21.30
2022-08-05T20:46:02.823Z,21.30
2022-08-05T20:49:06.284Z,21.40
2022-08-05T20:52:12.329Z,21.40
2022-08-05T20:55:55.161Z,21.30
2022-08-05T20:58:37.728Z,21.30
2022-08-05T21:01:39.992Z,21.30
2022-08-05T21:04:43.287Z,21.20
2022-08-05T21:07:51.873Z,21.20
2022-08-05T21:10:54.615Z,21.20
2022-08-05T21:14:00.582Z,21.10
2022-08-05T21:17:05.435Z,21.00
2022-08-05T21:20:10.305Z,21.10
2022-08-05T21:23:14.203Z,21.10
2022-08-05T21:26:16.416Z,21.10
2022-08-05T21:29:19.883Z,21.20
2022-08-05T21:32:29.875Z,21.10
2022-08-05T21:35:55.938Z,21.20
2022-08-05T21:38:56.814Z,21.00
2022-08-05T21:42:02.219Z,21.10
2022-08-05T21:45:05.095Z,21.10
2022-08-05T21:48:13.499Z,21.00
2022-08-05T21:52:15.400Z,21.00
2022-08-05T21:54:38.807Z,21.00
2022-08-05T21:57:42.750Z,21.10
2022-08-05T22:00:51.025Z,21.00
2022-08-05T22:03:54.187Z,21.10
2022-08-05T22:06:57.231Z,21.10
2022-08-05T22:10:04.514Z,21.20
2022-08-05T22:13:09.182Z,21.00
2022-08-05T22:16:41.929Z,21.10
2022-08-05T22:20:01.553Z,21.10
2022-08-05T22:24:01.282Z,21.10
2022-08-05T22:27:17.240Z,21.00
2022-08-05T22:30:20.858Z,21.00
2022-08-05T22:33:57.323Z,20.90
2022-08-05T22:36:45.642Z,20.80
2022-08-05T22:39:51.087Z,20.80
2022-08-05T22:42:58.542Z,20.80
2022-08-05T22:46:03.547Z,20.80
2022-08-05T22:50:17.611Z,20.80
2022-08-05T22:52:34.908Z,20.70
2022-08-05T22:55:57.294Z,20.70
2022-08-05T22:59:03.114Z,20.70
2022-08-05T23:02:07.737Z,20.70
2022-08-05T23:05:10.227Z,20.70
2022-08-05T23:08:12.623Z,20.70
2022-08-05T23:11:16.685Z,20.80
2022-08-05T23:14:22.540Z,20.70
2022-08-05T23:17:37.963Z,20.70
2022-08-05T23:20:56.817Z,20.70
2022-08-05T23:24:00.762Z,20.70
2022-08-05T23:27:06.078Z,20.70
2022-08-05T23:30:08.718Z,20.60
2022-08-05T23:33:16.106Z,20.60
2022-08-05T23:36:28.252Z,20.70
2022-08-05T23:39:32.540Z,20.70
2022-08-05T23:42:53.822Z,20.70
2022-08-05T23:45:56.721Z,20.60
2022-08-05T23:49:02.084Z,20.60
2022-08-05T23:52:27.614Z,20.50
2022-08-05T23:55:31.205Z,20.70
2022-08-05T23:58:34.020Z,20.60
